• Join FlightAware (Why Join?)
  • Login
  • US Flag 
12:37PM EDT


 

Airport Tracker/Info


-or-


 

Live Flight TrackerFlight Track Log ✈ SWA3135 ✈ 27-Sep-2013 ✈ KDEN - KSEA

Flight Track Log - Related Links

Times and Time Zones

All times are in EDT time to prevent confusion due to time zone crossing. See the SWA3135 flight status page for this flight to view local times or setup timezone preferences in your user account.

Time Position Orientation Groundspeed Altitude Reporting Facility
EDT Latitude Longitude Course Direction KTS MPH feet Rate Location/Type
11:30PM 39.9333 -104.6833 307° West 178 205 7,400  Level Denver TRACON
11:31PM 39.9833 -104.7167 333° Northwest 225 259 9,100 2,100 Climbing Denver TRACON
11:32PM 40.0517 -104.7342 349° North 263 303 11,400 2,520 Climbing Denver Center
11:33PM 40.1425 -104.7767 340° North 322 371 14,200 2,580 Climbing Denver Center
11:34PM 40.2342 -104.8214 340° North 355 409 16,700 2,100 Climbing Denver Center
11:35PM 40.1930 -105.2589 307° West  Level Estimated
11:35PM 40.3406 -104.8694 341° North 401 461 18,600  Level Denver Center
11:36PM 40.4508 -104.9222 340° North 423 487 21,000 2,160 Climbing Denver Center
11:37PM 40.5822 -104.9828 341° North 464 534 23,100 2,220 Climbing Denver Center
11:38PM 40.7081 -105.0442 340° North 471 542 25,600 2,220 Climbing Denver Center
11:39PM 40.8189 -105.1283 330° Northwest 463 533 27,700 1,800 Climbing Denver Center
11:40PM 40.9186 -105.2406 320° Northwest 470 541 29,300 1,320 Climbing Denver Center
11:41PM 41.0458 -105.3864 319° Northwest 493 567 30,700 1,380 Climbing Denver Center
11:42PM 41.1431 -105.5125 316° Northwest 508 585 32,500 1,620 Climbing Denver Center
11:43PM 41.1961 -105.6319 301° West 480 552 34,000 720 Climbing Denver Center
11:44PM 41.2744 -105.8161 300° West 456 525 34,000 300 Level Denver Center
11:45PM 41.3336 -105.9586 299° West 458 527 34,700 1,440 Climbing Denver Center
11:46PM 41.4017 -106.1194 299° West 450 518 37,000 1,500 Climbing Denver Center
11:47PM 41.4564 -106.2511 299° West 431 496 37,800 480 Climbing Denver Center
11:48PM 41.5133 -106.3875 299° West 437 503 38,000 60 Climbing Denver Center
11:49PM 41.5742 -106.5319 299° West 430 495 38,000  Level Denver Center
11:50PM 41.6369 -106.6875 298° West 427 491 38,000  Level Denver Center
11:51PM 41.6928 -106.8217 299° West 431 496 38,000  Level Denver Center
11:52PM 41.7461 -106.9553 298° West 428 493 38,000  Level Denver Center
11:53PM 41.8094 -107.1117 299° West 430 495 38,000  Level Denver Center
11:54PM 41.8658 -107.2475 299° West 434 499 38,000  Level Denver Center
11:55PM 41.9289 -107.4067 298° West 434 499 38,000  Level Denver Center
11:56PM 41.9839 -107.5433 298° West 435 501 38,000  Level Denver Center
11:57PM 42.0275 -107.6581 297° West 437 503 38,000  Level Salt Lake Center
11:58PM 42.0822 -107.7944 298° West 436 502 38,000  Level Salt Lake Center
11:59PM 42.1375 -107.9322 298° West 438 504 38,000  Level Salt Lake Center
12:00AM 42.2017 -108.0961 298° West 442 509 38,000  Level Salt Lake Center
12:01AM 42.2561 -108.2333 298° West 438 504 38,000  Level Salt Lake Center
12:02AM 42.3164 -108.3922 297° West 431 496 38,000  Level Salt Lake Center
12:03AM 42.3697 -108.5303 298° West 433 498 38,000  Level Salt Lake Center
12:04AM 42.4219 -108.6661 298° West 428 493 38,000  Level Salt Lake Center
12:05AM 42.4825 -108.8261 297° West 430 495 38,000  Level Salt Lake Center
12:06AM 42.5350 -108.9644 297° West 431 496 38,000  Level Salt Lake Center
12:07AM 42.5956 -109.1244 297° West 430 495 38,000  Level Salt Lake Center
12:08AM 42.6472 -109.2631 297° West 431 496 38,000  Level Salt Lake Center
12:09AM 42.6989 -109.4003 297° West 429 494 38,000  Level Salt Lake Center
12:10AM 42.7583 -109.5606 297° West 427 491 38,000  Level Salt Lake Center
12:11AM 42.8094 -109.6989 297° West 427 491 38,000  Level Salt Lake Center
12:12AM 42.8689 -109.8583 297° West 425 489 38,000  Level Salt Lake Center
12:13AM 42.9208 -110.0044 296° West 429 494 38,000  Level Salt Lake Center
12:14AM 42.9719 -110.1431 297° West 427 491 38,000  Level Salt Lake Center
12:15AM 43.0300 -110.3047 296° West 426 490 38,000  Level Salt Lake Center
12:16AM 43.0808 -110.4425 297° West 425 489 38,000  Level Salt Lake Center
12:17AM 43.1297 -110.5808 296° West 423 487 38,000  Level Salt Lake Center
12:18AM 43.1881 -110.7372 297° West 415 478 38,000  Level Salt Lake Center
12:19AM 43.2364 -110.8736 296° West 415 478 38,000  Level Salt Lake Center
12:21AM 43.2856 -111.0125 296° West 421 484 38,000  Level Salt Lake Center
12:22AM 43.3419 -111.1733 296° West 419 482 38,000  Level Salt Lake Center
12:23AM 43.3908 -111.3111 296° West 419 482 38,000  Level Salt Lake Center
12:24AM 43.4383 -111.4506 295° West 421 484 38,000  Level Salt Lake Center
12:25AM 43.4953 -111.6119 296° West 420 483 38,000  Level Salt Lake Center
12:26AM 43.5431 -111.7511 295° West 419 482 38,000  Level Salt Lake Center
12:27AM 43.5981 -111.9133 295° West 420 483 38,000  Level Salt Lake Center
12:28AM 43.6450 -112.0511 295° West 417 480 38,000  Level Salt Lake Center
12:29AM 43.6925 -112.1892 295° West 416 479 38,000  Level Salt Lake Center
12:30AM 43.7467 -112.3508 295° West 414 476 38,000  Level Salt Lake Center
12:31AM 43.7928 -112.4894 295° West 415 478 38,000  Level Salt Lake Center
12:32AM 43.8392 -112.6308 295° West 420 483 38,000  Level Salt Lake Center
12:33AM 43.8936 -112.7944 295° West 420 483 38,000  Level Salt Lake Center
12:34AM 43.9408 -112.9347 295° West 420 483 38,000  Level Salt Lake Center
12:35AM 43.9858 -113.0742 294° West 415 478 38,000  Level Salt Lake Center
12:36AM 44.0378 -113.2381 294° West 414 476 38,000  Level Salt Lake Center
12:37AM 44.0850 -113.3772 295° West 416 479 38,000  Level Salt Lake Center
12:38AM 44.1367 -113.5381 294° West 411 473 38,000  Level Salt Lake Center
12:39AM 44.1831 -113.6772 295° West 413 475 38,000  Level Salt Lake Center
12:40AM 44.2264 -113.8144 294° West 408 470 38,000  Level Salt Lake Center
12:41AM 44.2689 -113.9494 294° West 404 465 38,000  Level Salt Lake Center
12:42AM 44.3269 -114.1189 296° West 404 465 38,000  Level Salt Lake Center
12:43AM 44.3831 -114.2569 300° West 409 471 38,000  Level Salt Lake Center
12:44AM 44.4372 -114.3947 299° West 407 468 38,000  Level Salt Lake Center
12:45AM 44.4917 -114.5325 299° West 406 467 38,000  Level Salt Lake Center
12:46AM 44.5453 -114.6692 299° West 404 465 38,000  Level Salt Lake Center
12:47AM 44.5967 -114.8058 298° West 399 459 38,000  Level Salt Lake Center
12:48AM 44.6500 -114.9406 299° West 397 457 38,000  Level Salt Lake Center
12:49AM 44.7017 -115.0761 298° West 396 456 38,000  Level Salt Lake Center
12:50AM 44.7533 -115.2125 298° West 397 457 38,000  Level Salt Lake Center
12:51AM 44.8061 -115.3494 299° West 399 459 38,000  Level Salt Lake Center
12:52AM 44.8678 -115.5144 298° West 401 461 38,000  Level Salt Lake Center
12:53AM 44.9203 -115.6522 298° West 403 464 38,000  Level Salt Lake Center
12:54AM 44.9722 -115.7900 298° West 402 463 38,000  Level Salt Lake Center
12:55AM 45.0236 -115.9275 298° West 400 460 38,000  Level Salt Lake Center
12:56AM 45.0742 -116.0644 298° West 397 457 38,000  Level Salt Lake Center
12:57AM 45.1233 -116.2006 297° West 392 451 38,000  Level Salt Lake Center
12:58AM 45.1742 -116.3358 298° West 391 450 38,000  Level Salt Lake Center
12:59AM 45.2225 -116.4739 296° West 391 450 38,000  Level Seattle Center
01:00AM 45.2722 -116.6103 297° West 391 450 38,000  Level Seattle Center
01:01AM 45.3222 -116.7453 298° West 389 448 38,000  Level Seattle Center
01:02AM 45.3808 -116.9092 297° West 389 448 38,000  Level Seattle Center
01:03AM 45.4300 -117.0439 298° West 387 445 38,000  Level Seattle Center
01:04AM 45.4783 -117.1800 297° West 387 445 38,000  Level Seattle Center
01:05AM 45.5253 -117.3172 296° West 386 444 38,000  Level Seattle Center
01:06AM 45.5719 -117.4453 298° West 384 442 38,000  Level Seattle Center
01:07AM 45.6183 -117.5817 296° West 383 441 38,000  Level Seattle Center
01:08AM 45.6656 -117.7150 297° West 380 437 38,000  Level Seattle Center
01:09AM 45.7164 -117.8572 297° West 383 441 38,000  Level Seattle Center
01:10AM 45.7619 -117.9897 296° West 376 433 38,000  Level Seattle Center
01:11AM 45.8078 -118.1242 296° West 375 432 38,000  Level Seattle Center
01:12AM 45.8542 -118.2608 296° West 380 437 38,000  Level Seattle Center
01:13AM 45.9011 -118.3978 296° West 382 440 38,000  Level Seattle Center
01:14AM 45.9442 -118.5250 296° West 380 437 38,000  Level Seattle Center
01:15AM 45.9900 -118.6611 296° West 380 437 38,000  Level Seattle Center
01:16AM 46.0353 -118.7967 296° West 378 435 38,000  Level Seattle Center
01:17AM 46.0894 -118.9589 296° West 377 434 38,000  Level Seattle Center
01:18AM 46.1336 -119.0919 296° West 372 428 38,000  Level Seattle Center
01:19AM 46.1781 -119.2269 295° West 373 429 38,000  Level Seattle Center
01:20AM 46.2228 -119.3614 296° West 373 429 38,000  Level Seattle Center
01:21AM 46.2658 -119.4961 295° West 374 430 38,000  Level Seattle Center
01:22AM 46.3092 -119.6283 295° West 369 425 38,000  Level Seattle Center
01:23AM 46.3517 -119.7614 295° West 368 423 38,000  Level Seattle Center
01:24AM 46.3947 -119.8975 295° West 371 427 38,000  Level Seattle Center
01:25AM 46.4383 -120.0311 295° West 370 426 38,000  Level Seattle Center
01:26AM 46.4806 -120.1653 295° West 369 425 38,000  Level Seattle Center
01:27AM 46.5228 -120.3000 295° West 369 425 38,000  Level Seattle Center
01:29AM 46.5661 -120.4342 295° West 367 422 38,000  Level Seattle Center
01:30AM 46.6217 -120.5569 303° West 368 423 38,000 -1,140 Level Seattle Center
01:31AM 46.6797 -120.6747 306° West 364 419 35,800 -2,460 Descending Seattle Center
01:32AM 46.7375 -120.7975 305° West 365 420 33,100 -2,400 Descending Seattle Center
01:33AM 46.7944 -120.9197 304° West 367 422 31,000 -2,100 Descending Seattle Center
01:34AM 46.8500 -121.0392 304° West 360 414 28,900 -2,400 Descending Seattle Center
01:35AM 46.9069 -121.1594 305° West 359 413 26,200 -2,280 Descending Seattle Center
01:36AM 46.9625 -121.2800 304° West 361 415 24,400 -1,980 Descending Seattle Center
01:36AM 46.9997 -121.3536 307° West 338 389 23,300 -2,400 Descending Seattle Center
01:36AM 47.0069 -121.3725 299° West 335 386 22,800 -2,040 Descending Seattle Center
01:37AM 47.0236 -121.4161 299° West 347 399 22,200 -1,980 Descending Seattle Center
01:37AM 47.0619 -121.4881 308° West 323 372 20,800 -1,620 Descending Seattle Center
01:38AM 47.0636 -121.5017 280° West 336 387 20,600 -1,920 Descending Seattle Center
01:38AM 47.1103 -121.5950 306° West 316 364 18,900 -2,280 Descending Seattle Center
01:39AM 47.1231 -121.6267 301° West 323 372 18,300 -1,920 Descending Seattle Center
01:39AM 47.1639 -121.7150 304° West 306 352 16,600 -1,920 Descending Seattle Center
01:40AM 47.1733 -121.7300 313° West 314 361 16,400 -1,620 Descending Seattle Center
01:40AM 47.2172 -121.8258 304° West 305 351 15,000 -1,380 Descending Seattle Center
01:41AM 47.2217 -121.8333 311° West 309 356 15,000 -120 Level Seattle Center
01:41AM 47.2553 -121.9125 302° West 302 348 14,900 -300 Descending Seattle Center
01:42AM 47.2667 -121.9342 308° West 299 344 14,700 -1,140 Descending Seattle Center
01:42AM 47.2967 -122.0039 302° West 291 335 13,900 -1,380 Descending Seattle Center
01:43AM 47.3139 -122.0392 306° West 287 330 13,300 -1,380 Descending Seattle Center
01:43AM 47.3381 -122.0956 302° West 269 310 12,500 -1,440 Descending Seattle Center
01:44AM 47.3547 -122.1306 305° West 272 313 11,900 -1,800 Descending Seattle Center
01:44AM 47.3892 -122.1819 315° West 275 316 10,700 -1,680 Descending Seattle Center
01:45AM 47.4158 -122.1806 North 288 331 10,200 -1,620 Descending Seattle Center
01:46AM 47.4978 -122.1711 North 298 343 8,600 -1,500 Descending Seattle Center
01:46AM 47.5608 -122.1656 North 298 343 7,500 -1,380 Descending Seattle Center
01:47AM 47.5792 -122.1619 North 296 341 7,200 -1,200 Descending Seattle Center
01:47AM 47.6475 -122.1567 North 291 335 6,300 -1,140 Descending Seattle Center
01:48AM 47.6583 -122.1578 356° North 289 333 6,100 -1,020 Descending Seattle Center
01:48AM 47.7117 -122.1903 338° Northwest 251 289 5,300 -1,020 Descending Seattle Center
01:49AM 47.7169 -122.2097 292° West 251 289 5,100 -900 Descending Seattle Center
01:49AM 47.7189 -122.2717 273° West 210 242 4,500 -840 Descending Seattle Center
01:50AM 47.7083 -122.2922 233° Southwest 225 259 4,300 -900 Descending Seattle Center
01:50AM 47.6750 -122.3092 199° South 196 226 3,600 -720 Descending Seattle Center
01:51AM 47.6569 -122.3117 185° South 197 227 3,600 -420 Level Seattle Center
01:51AM 47.6264 -122.3100 178° South 163 188 3,200 -420 Descending Seattle Center
01:52AM 47.6119 -122.3103 181° South 171 197 3,200 -420 Level Seattle Center
01:52AM 47.5822 -122.3114 181° South 155 178 2,800 -720 Descending Seattle Center
01:53AM 47.5675 -122.3108 179° South 161 185 2,500 -900 Descending Seattle Center
01:53AM 47.5353 -122.3108 180° South 168 193 1,900 -900 Descending Seattle Center
01:54AM 47.5206 -122.3111 181° South 166 191 1,600 -840 Descending Seattle Center
01:54AM 47.4958 -122.3131 183° South 134 154 1,100 -600 Descending Seattle Center
01:55AM 47.4856 -122.3114 174° South 127 146 1,000 -720 Descending Seattle Center
01:55AM 47.4642 -122.3108 179° South 121 139 500 -600 Descending Seattle Center
01:56AM 47.4494 -122.3119 183° South 122 140 400 -300 Descending Seattle Center